createdAt,value
2018-07-11T00:02:26.990Z,20.50
2018-07-11T00:04:56.409Z,20.50
2018-07-11T00:07:25.781Z,20.50
2018-07-11T00:09:55.184Z,20.50
2018-07-11T00:12:24.589Z,20.50
2018-07-11T00:14:54.055Z,20.50
2018-07-11T00:17:23.515Z,20.40
2018-07-11T00:19:52.977Z,20.40
2018-07-11T00:22:22.484Z,20.40
2018-07-11T00:24:51.969Z,20.40
2018-07-11T00:27:21.444Z,20.40
2018-07-11T00:29:50.921Z,20.30
2018-07-11T00:32:20.379Z,20.30
2018-07-11T00:34:49.883Z,20.30
2018-07-11T00:37:19.570Z,20.30
2018-07-11T00:39:48.966Z,20.30
2018-07-11T00:42:18.502Z,20.30
2018-07-11T00:44:48.052Z,20.30
2018-07-11T00:47:17.586Z,20.20
2018-07-11T00:49:47.093Z,20.20
2018-07-11T00:52:16.740Z,20.20
2018-07-11T00:54:46.231Z,20.20
2018-07-11T00:57:16.722Z,20.20
2018-07-11T00:59:46.249Z,20.20
2018-07-11T01:02:16.224Z,20.10
2018-07-11T01:04:45.381Z,20.10
2018-07-11T01:07:14.965Z,20.10
2018-07-11T01:09:49.322Z,20.10
2018-07-11T01:12:19.738Z,20.10
2018-07-11T01:14:49.398Z,20.10
2018-07-11T01:17:24.040Z,20.00
2018-07-11T01:19:53.523Z,20.00
2018-07-11T01:22:22.976Z,20.00
2018-07-11T01:24:52.488Z,20.00
2018-07-11T01:27:21.865Z,20.00
2018-07-11T01:29:51.291Z,20.00
2018-07-11T01:32:20.757Z,19.90
2018-07-11T01:34:50.224Z,19.90
2018-07-11T01:37:19.704Z,19.90
2018-07-11T01:39:49.167Z,19.90
2018-07-11T01:42:18.633Z,19.90
2018-07-11T01:44:48.238Z,19.90
2018-07-11T01:47:17.647Z,19.80
2018-07-11T01:49:47.161Z,19.80
2018-07-11T01:52:33.422Z,19.80
2018-07-11T01:55:02.901Z,19.80
2018-07-11T01:57:32.341Z,19.80
2018-07-11T02:00:01.965Z,19.70
2018-07-11T02:02:31.449Z,19.70
2018-07-11T02:05:00.935Z,19.70
2018-07-11T02:07:30.478Z,19.70
2018-07-11T02:09:59.981Z,19.70
2018-07-11T02:12:29.451Z,19.70
2018-07-11T02:15:04.792Z,19.70
2018-07-11T02:17:36.590Z,19.70
2018-07-11T02:20:08.907Z,19.60
2018-07-11T02:22:39.567Z,19.60
2018-07-11T02:25:09.310Z,19.60
2018-07-11T02:27:38.995Z,19.60
2018-07-11T02:30:08.466Z,19.60
2018-07-11T02:32:37.970Z,19.60
2018-07-11T02:35:07.488Z,19.60
2018-07-11T02:37:37.702Z,19.60
2018-07-11T02:40:07.177Z,19.60
2018-07-11T02:42:36.667Z,19.60
2018-07-11T02:45:06.101Z,19.50
2018-07-11T02:47:40.726Z,19.50
2018-07-11T02:50:10.377Z,19.50
2018-07-11T02:52:39.770Z,19.50
2018-07-11T02:55:09.570Z,19.50
2018-07-11T02:57:38.993Z,19.50
2018-07-11T03:00:08.471Z,19.50
2018-07-11T03:02:37.964Z,19.50
2018-07-11T03:05:07.421Z,19.50
2018-07-11T03:07:36.888Z,19.40
2018-07-11T03:10:06.353Z,19.40
2018-07-11T03:12:35.787Z,19.40
2018-07-11T03:15:05.246Z,19.40
2018-07-11T03:17:34.851Z,19.40
2018-07-11T03:20:04.283Z,19.40
2018-07-11T03:22:33.788Z,19.40
2018-07-11T03:25:03.225Z,19.40
2018-07-11T03:27:32.666Z,19.40
2018-07-11T03:30:02.160Z,19.40
2018-07-11T03:32:31.663Z,19.40
2018-07-11T03:35:01.006Z,19.30
2018-07-11T03:37:30.538Z,19.30
2018-07-11T03:40:00.002Z,19.30
2018-07-11T03:42:29.426Z,19.30
2018-07-11T03:44:59.026Z,19.30
2018-07-11T03:47:28.462Z,19.30
2018-07-11T03:49:57.882Z,19.30
2018-07-11T03:52:27.397Z,19.30
2018-07-11T03:54:57.279Z,19.30
2018-07-11T03:57:26.652Z,19.30
2018-07-11T03:59:56.089Z,19.30
2018-07-11T04:02:25.449Z,19.30
2018-07-11T04:04:55.169Z,19.30
2018-07-11T04:07:24.539Z,19.30
2018-07-11T04:09:53.906Z,19.30
2018-07-11T04:12:23.453Z,19.30
2018-07-11T04:14:52.844Z,19.30
2018-07-11T04:17:22.228Z,19.30
2018-07-11T04:19:51.563Z,19.30
2018-07-11T04:22:20.942Z,19.30
2018-07-11T04:24:50.359Z,19.30
2018-07-11T04:27:19.816Z,19.30
2018-07-11T04:29:49.314Z,19.30
2018-07-11T04:32:18.771Z,19.30
2018-07-11T04:34:48.330Z,19.30
2018-07-11T04:37:17.735Z,19.30
2018-07-11T04:39:47.356Z,19.30
2018-07-11T04:42:16.811Z,19.30
2018-07-11T04:44:46.273Z,19.30
2018-07-11T04:47:15.758Z,19.30
2018-07-11T04:49:45.572Z,19.30
2018-07-11T04:52:15.087Z,19.30
2018-07-11T04:54:44.565Z,19.30
2018-07-11T04:57:14.050Z,19.30
2018-07-11T04:59:43.536Z,19.30
2018-07-11T05:02:12.942Z,19.30
2018-07-11T05:04:42.435Z,19.30
2018-07-11T05:07:11.846Z,19.30
2018-07-11T05:09:41.280Z,19.40
2018-07-11T05:12:10.712Z,19.40
2018-07-11T05:14:40.102Z,19.40
2018-07-11T05:17:09.504Z,19.40
2018-07-11T05:19:38.968Z,19.40
2018-07-11T05:22:08.405Z,19.40
2018-07-11T05:24:37.880Z,19.40
2018-07-11T05:27:07.436Z,19.40
2018-07-11T05:29:36.868Z,19.50
2018-07-11T05:32:06.636Z,19.50
2018-07-11T05:34:36.121Z,19.50
2018-07-11T05:37:05.615Z,19.50
2018-07-11T05:39:35.216Z,19.50
2018-07-11T05:42:04.687Z,19.50
2018-07-11T05:44:40.610Z,19.60
2018-07-11T05:47:10.146Z,19.60
2018-07-11T05:49:39.288Z,19.60
2018-07-11T05:52:08.806Z,19.60
2018-07-11T05:54:38.301Z,19.70
2018-07-11T05:57:07.773Z,19.70
2018-07-11T05:59:37.185Z,19.70
2018-07-11T06:02:06.696Z,19.70
2018-07-11T06:04:36.163Z,19.80
2018-07-11T06:07:05.731Z,19.80
2018-07-11T06:09:35.152Z,19.80
2018-07-11T06:12:04.635Z,19.80
2018-07-11T06:14:34.078Z,19.90
2018-07-11T06:17:04.103Z,19.90
2018-07-11T06:19:33.605Z,19.90
2018-07-11T06:22:02.979Z,19.90
2018-07-11T06:24:32.464Z,20.00
2018-07-11T06:27:01.957Z,20.00
2018-07-11T06:29:31.411Z,20.00
2018-07-11T06:32:00.865Z,20.10
2018-07-11T06:34:30.362Z,20.10
2018-07-11T06:36:59.801Z,20.10
2018-07-11T06:39:29.364Z,20.20
2018-07-11T06:41:58.823Z,20.20
2018-07-11T06:44:28.298Z,20.20
2018-07-11T06:46:57.752Z,20.20
2018-07-11T06:49:27.229Z,20.30
2018-07-11T06:51:56.716Z,20.30
2018-07-11T06:54:26.152Z,20.30
2018-07-11T06:56:55.608Z,20.30
2018-07-11T06:59:25.006Z,20.40
2018-07-11T07:01:54.465Z,20.40
2018-07-11T07:04:23.910Z,20.40
2018-07-11T07:06:53.357Z,20.50
2018-07-11T07:09:22.788Z,20.50
2018-07-11T07:11:52.253Z,20.50
2018-07-11T07:14:21.720Z,20.50
2018-07-11T07:16:51.222Z,20.60
2018-07-11T07:19:20.739Z,20.60
2018-07-11T07:21:50.183Z,20.60
2018-07-11T07:24:19.670Z,20.70
2018-07-11T07:26:49.166Z,20.70
2018-07-11T07:29:18.634Z,20.80
2018-07-11T07:31:48.068Z,20.80
2018-07-11T07:34:17.497Z,20.80
2018-07-11T07:36:47.009Z,20.90
2018-07-11T07:39:16.657Z,20.90
2018-07-11T07:41:46.161Z,21.00
2018-07-11T07:44:15.747Z,21.00
2018-07-11T07:46:50.420Z,21.10
2018-07-11T07:49:19.952Z,21.10
2018-07-11T07:51:49.479Z,21.20
2018-07-11T07:54:18.950Z,21.20
2018-07-11T07:56:48.522Z,21.30
2018-07-11T07:59:18.073Z,21.30
2018-07-11T08:01:47.552Z,21.40
2018-07-11T08:04:17.124Z,21.50
2018-07-11T08:06:47.074Z,21.50
2018-07-11T08:09:16.814Z,21.60
2018-07-11T08:11:46.301Z,21.70
2018-07-11T08:14:15.821Z,21.80
2018-07-11T08:16:45.337Z,21.90
2018-07-11T08:19:14.798Z,21.90
2018-07-11T08:21:44.330Z,22.00
2018-07-11T08:24:30.718Z,22.10
2018-07-11T08:27:30.173Z,22.10
2018-07-11T08:30:21.103Z,22.10
2018-07-11T08:33:09.989Z,22.10
2018-07-11T08:36:31.145Z,22.20
2018-07-11T08:39:37.253Z,22.10
2018-07-11T08:44:49.925Z,22.10
2018-07-11T08:49:44.725Z,21.90
2018-07-11T08:52:38.953Z,21.90
2018-07-11T08:55:23.801Z,22.00
2018-07-11T09:00:30.382Z,22.20
2018-07-11T09:04:06.903Z,22.00
2018-07-11T09:06:55.091Z,22.10
2018-07-11T09:13:53.803Z,22.30
2018-07-11T09:17:11.530Z,22.00
2018-07-11T09:21:00.309Z,22.20
2018-07-11T09:24:39.811Z,22.40
2018-07-11T09:27:09.828Z,22.40
2018-07-11T09:29:40.162Z,22.60
2018-07-11T09:32:10.171Z,22.80
2018-07-11T09:34:39.890Z,22.90
2018-07-11T09:37:09.609Z,23.00
2018-07-11T09:39:39.441Z,23.00
2018-07-11T09:42:08.963Z,23.10
2018-07-11T09:44:38.669Z,23.20
2018-07-11T09:47:13.435Z,23.20
2018-07-11T09:49:43.020Z,23.30
2018-07-11T09:52:12.563Z,23.30
2018-07-11T09:54:42.047Z,23.30
2018-07-11T09:57:11.578Z,23.40
2018-07-11T09:59:41.192Z,23.40
2018-07-11T10:02:11.181Z,23.40
2018-07-11T10:04:40.700Z,23.50
2018-07-11T10:07:10.305Z,23.50
2018-07-11T10:09:39.854Z,23.50
2018-07-11T10:12:09.322Z,23.50
2018-07-11T10:14:38.876Z,23.60
2018-07-11T10:17:08.299Z,23.60
2018-07-11T10:19:37.805Z,23.60
2018-07-11T10:22:07.274Z,23.60
2018-07-11T10:24:36.773Z,23.60
2018-07-11T10:27:06.287Z,23.70
2018-07-11T10:29:35.748Z,23.70
2018-07-11T10:32:05.207Z,23.70
2018-07-11T10:34:34.731Z,23.70
2018-07-11T10:37:04.208Z,23.70
2018-07-11T10:39:33.756Z,23.80
2018-07-11T10:42:03.246Z,23.80
2018-07-11T10:44:32.753Z,23.80
2018-07-11T10:47:07.491Z,23.80
2018-07-11T10:49:36.972Z,23.80
2018-07-11T10:52:07.688Z,23.80
2018-07-11T10:54:37.372Z,23.80
2018-07-11T10:57:06.892Z,23.90
2018-07-11T10:59:36.452Z,23.90
2018-07-11T11:02:06.036Z,23.90
2018-07-11T11:04:35.565Z,23.90
2018-07-11T11:07:05.112Z,23.90
2018-07-11T11:09:34.610Z,23.90
2018-07-11T11:12:04.153Z,24.00
2018-07-11T11:14:33.638Z,24.00
2018-07-11T11:17:03.050Z,24.00
2018-07-11T11:19:32.592Z,24.00
2018-07-11T11:22:02.448Z,24.00
2018-07-11T11:24:31.913Z,24.00
2018-07-11T11:27:01.421Z,24.00
2018-07-11T11:29:30.945Z,24.00
2018-07-11T11:32:00.545Z,24.10
2018-07-11T11:34:30.025Z,24.10
2018-07-11T11:36:59.493Z,24.10
2018-07-11T11:39:29.108Z,24.10
2018-07-11T11:41:58.730Z,24.10
2018-07-11T11:44:28.216Z,24.10
2018-07-11T11:47:01.669Z,24.10
2018-07-11T11:49:32.029Z,24.10
2018-07-11T11:52:01.212Z,24.20
2018-07-11T11:54:30.876Z,24.20
2018-07-11T11:57:00.400Z,24.20
2018-07-11T11:59:30.134Z,24.20
2018-07-11T12:01:59.612Z,24.20
2018-07-11T12:04:29.087Z,24.30
2018-07-11T12:06:58.603Z,24.30
2018-07-11T12:09:28.108Z,24.30
2018-07-11T12:12:02.128Z,24.30
2018-07-11T12:14:31.866Z,24.30
2018-07-11T12:17:01.385Z,24.30
2018-07-11T12:19:30.908Z,24.40
2018-07-11T12:22:00.396Z,24.40
2018-07-11T12:24:29.903Z,24.40
2018-07-11T12:26:59.508Z,24.40
2018-07-11T12:29:29.001Z,24.40
2018-07-11T12:31:58.516Z,24.40
2018-07-11T12:34:28.090Z,24.40
2018-07-11T12:36:58.033Z,24.40
2018-07-11T12:39:27.579Z,24.40
2018-07-11T12:41:57.029Z,24.40
2018-07-11T12:44:26.475Z,24.40
2018-07-11T12:46:56.030Z,24.50
2018-07-11T12:49:25.552Z,24.40
2018-07-11T12:51:55.183Z,24.50
2018-07-11T12:54:24.749Z,24.40
2018-07-11T12:56:54.632Z,24.50
2018-07-11T12:59:25.777Z,24.50
2018-07-11T13:01:55.353Z,24.50
2018-07-11T13:04:25.235Z,24.50
2018-07-11T13:06:55.782Z,24.50
2018-07-11T13:09:25.314Z,24.40
2018-07-11T13:11:54.846Z,24.40
2018-07-11T13:14:24.353Z,24.40
2018-07-11T13:16:53.901Z,24.40
2018-07-11T13:19:23.465Z,24.40
2018-07-11T13:21:52.975Z,24.40
2018-07-11T13:24:22.473Z,24.40
2018-07-11T13:26:51.920Z,24.40
2018-07-11T13:29:21.393Z,24.40
2018-07-11T13:31:50.820Z,24.40
2018-07-11T13:34:20.341Z,24.40
2018-07-11T13:36:49.863Z,24.40
2018-07-11T13:39:22.769Z,24.40
2018-07-11T13:41:52.765Z,24.40
2018-07-11T13:44:22.252Z,24.40
2018-07-11T13:46:51.864Z,24.40
2018-07-11T13:49:21.406Z,24.30
2018-07-11T13:51:50.896Z,24.30
2018-07-11T13:54:20.407Z,24.30
2018-07-11T13:56:49.992Z,24.30
2018-07-11T13:59:19.480Z,24.30
2018-07-11T14:01:48.984Z,24.30
2018-07-11T14:04:18.460Z,24.30
2018-07-11T14:06:47.974Z,24.30
2018-07-11T14:09:17.625Z,24.30
2018-07-11T14:11:47.124Z,24.20
2018-07-11T14:14:17.326Z,24.20
2018-07-11T14:16:46.912Z,24.20
2018-07-11T14:19:16.438Z,24.20
2018-07-11T14:21:46.042Z,24.20
2018-07-11T14:24:16.428Z,24.10
2018-07-11T14:26:46.462Z,24.10
2018-07-11T14:29:15.948Z,24.10
2018-07-11T14:31:45.555Z,24.10
2018-07-11T14:34:15.029Z,24.10
2018-07-11T14:36:44.490Z,24.00
2018-07-11T14:39:13.958Z,24.00
2018-07-11T14:41:43.474Z,24.00
2018-07-11T14:44:12.983Z,23.90
2018-07-11T14:46:42.640Z,23.90
2018-07-11T14:49:15.178Z,23.90
2018-07-11T14:51:44.941Z,23.90
2018-07-11T14:54:14.710Z,23.90
2018-07-11T14:56:44.234Z,23.80
2018-07-11T14:59:13.819Z,23.80
2018-07-11T15:01:43.318Z,23.80
2018-07-11T15:04:12.723Z,23.80
2018-07-11T15:06:42.288Z,23.80
2018-07-11T15:09:12.021Z,23.70
2018-07-11T15:11:41.355Z,23.70
2018-07-11T15:14:10.805Z,23.70
2018-07-11T15:16:40.389Z,23.70
2018-07-11T15:19:09.969Z,23.70
2018-07-11T15:21:39.480Z,23.60
2018-07-11T15:24:09.178Z,23.60
2018-07-11T15:26:39.115Z,23.60
2018-07-11T15:29:09.363Z,23.60
2018-07-11T15:31:38.813Z,23.60
2018-07-11T15:34:08.360Z,23.50
2018-07-11T15:36:39.081Z,23.50
2018-07-11T15:39:09.414Z,23.50
2018-07-11T15:41:38.994Z,23.50
2018-07-11T15:44:08.766Z,23.50
2018-07-11T15:46:38.637Z,23.40
2018-07-11T15:49:08.141Z,23.40
2018-07-11T15:51:38.339Z,23.40
2018-07-11T15:54:07.882Z,23.40
2018-07-11T15:56:38.375Z,23.40
2018-07-11T15:59:09.973Z,23.30
2018-07-11T16:01:56.361Z,23.30
2018-07-11T16:04:37.516Z,23.30
2018-07-11T16:07:08.932Z,23.20
2018-07-11T16:10:00.201Z,23.20
2018-07-11T16:12:29.837Z,23.20
2018-07-11T16:14:59.427Z,23.10
2018-07-11T16:17:29.267Z,23.20
2018-07-11T16:19:58.768Z,23.20
2018-07-11T16:22:28.365Z,23.20
2018-07-11T16:24:57.878Z,23.10
2018-07-11T16:27:27.401Z,23.10
2018-07-11T16:29:56.976Z,23.10
2018-07-11T16:32:26.446Z,23.10
2018-07-11T16:34:56.091Z,23.10
2018-07-11T16:37:25.597Z,23.10
2018-07-11T16:39:55.115Z,23.10
2018-07-11T16:42:24.791Z,23.10
2018-07-11T16:44:54.264Z,23.10
2018-07-11T16:47:23.808Z,23.10
2018-07-11T16:49:53.951Z,23.10
2018-07-11T16:52:23.841Z,23.10
2018-07-11T16:54:53.426Z,23.10
2018-07-11T16:57:58.465Z,23.10
2018-07-11T17:00:30.248Z,23.10
2018-07-11T17:03:11.600Z,23.10
2018-07-11T17:06:18.106Z,23.10
2018-07-11T17:08:52.345Z,23.00
2018-07-11T17:11:25.363Z,23.00
2018-07-11T17:13:57.226Z,23.00
2018-07-11T17:16:55.229Z,23.00
2018-07-11T17:19:32.589Z,23.00
2018-07-11T17:22:05.909Z,23.00
2018-07-11T17:24:46.749Z,23.10
2018-07-11T17:27:21.324Z,23.10
2018-07-11T17:29:52.313Z,23.10
2018-07-11T17:32:22.241Z,23.10
2018-07-11T17:34:51.731Z,23.10
2018-07-11T17:37:24.594Z,23.10
2018-07-11T17:39:55.262Z,23.10
2018-07-11T17:42:27.524Z,23.10
2018-07-11T17:45:16.912Z,23.10
2018-07-11T17:50:03.858Z,23.10
2018-07-11T17:52:47.366Z,22.90
2018-07-11T17:55:31.277Z,22.90
2018-07-11T17:58:08.783Z,23.00
2018-07-11T18:01:05.025Z,23.00
2018-07-11T18:03:57.547Z,23.00
2018-07-11T18:06:41.148Z,23.00
2018-07-11T18:09:12.307Z,23.00
2018-07-11T18:11:56.709Z,23.00
2018-07-11T18:15:42.983Z,23.00
2018-07-11T18:18:31.831Z,22.90
2018-07-11T18:21:32.759Z,22.90
2018-07-11T18:26:23.842Z,22.90
2018-07-11T18:29:19.124Z,22.60
2018-07-11T18:32:05.274Z,22.70
2018-07-11T18:37:07.064Z,22.70
2018-07-11T18:41:18.902Z,22.50
2018-07-11T18:44:26.837Z,22.40
2018-07-11T18:47:11.495Z,22.50
2018-07-11T18:52:33.779Z,22.60
2018-07-11T18:55:23.925Z,22.30
2018-07-11T18:58:23.799Z,22.40
2018-07-11T19:01:11.462Z,22.50
2018-07-11T19:05:56.805Z,22.50
2018-07-11T19:09:42.859Z,22.30
2018-07-11T19:12:32.193Z,22.30
2018-07-11T19:15:15.625Z,22.30
2018-07-11T19:18:26.980Z,22.40
2018-07-11T19:21:13.159Z,22.40
2018-07-11T19:24:08.200Z,22.40
2018-07-11T19:26:59.162Z,22.40
2018-07-11T19:30:43.161Z,22.40
2018-07-11T19:33:56.377Z,22.30
2018-07-11T19:36:38.300Z,22.30
2018-07-11T19:39:13.920Z,22.40
2018-07-11T19:41:56.054Z,22.40
2018-07-11T19:45:42.569Z,22.40
2018-07-11T19:50:26.145Z,22.20
2018-07-11T19:56:10.486Z,22.00
2018-07-11T19:58:40.014Z,21.70
2018-07-11T20:01:09.450Z,21.90
2018-07-11T20:03:38.913Z,22.00
2018-07-11T20:06:08.349Z,21.90
2018-07-11T20:08:38.145Z,22.10
2018-07-11T20:11:07.744Z,22.10
2018-07-11T20:13:37.266Z,22.10
2018-07-11T20:16:07.300Z,22.10
2018-07-11T20:18:37.020Z,22.10
2018-07-11T20:21:06.599Z,22.10
2018-07-11T20:23:36.199Z,22.10
2018-07-11T20:26:05.700Z,22.10
2018-07-11T20:28:35.374Z,22.10
2018-07-11T20:31:04.924Z,22.10
2018-07-11T20:33:34.442Z,22.10
2018-07-11T20:36:03.924Z,22.10
2018-07-11T20:38:33.507Z,22.10
2018-07-11T20:41:03.094Z,22.10
2018-07-11T20:43:32.794Z,22.10
2018-07-11T20:46:02.878Z,22.00
2018-07-11T20:48:32.612Z,22.00
2018-07-11T20:51:02.140Z,22.00
2018-07-11T20:53:31.620Z,22.00
2018-07-11T20:56:01.245Z,22.00
2018-07-11T20:58:47.738Z,22.00
2018-07-11T21:01:28.028Z,21.90
2018-07-11T21:04:18.003Z,21.90
2018-07-11T21:09:10.440Z,21.80
2018-07-11T21:14:33.618Z,21.50
2018-07-11T21:19:12.847Z,21.20
2018-07-11T21:21:43.236Z,21.10
2018-07-11T21:24:13.383Z,21.20
2018-07-11T21:26:42.861Z,21.30
2018-07-11T21:29:12.272Z,21.40
2018-07-11T21:31:41.743Z,21.40
2018-07-11T21:34:11.214Z,21.40
2018-07-11T21:36:41.089Z,21.50
2018-07-11T21:39:10.677Z,21.50
2018-07-11T21:41:40.149Z,21.50
2018-07-11T21:44:09.613Z,21.50
2018-07-11T21:46:39.246Z,21.50
2018-07-11T21:49:08.770Z,21.50
2018-07-11T21:51:38.241Z,21.50
2018-07-11T21:54:07.691Z,21.50
2018-07-11T21:56:37.189Z,21.50
2018-07-11T21:59:07.271Z,21.40
2018-07-11T22:01:36.777Z,21.40
2018-07-11T22:04:06.284Z,21.40
2018-07-11T22:06:35.719Z,21.40
2018-07-11T22:09:05.748Z,21.40
2018-07-11T22:11:35.518Z,21.40
2018-07-11T22:14:04.958Z,21.40
2018-07-11T22:16:34.404Z,21.30
2018-07-11T22:19:03.862Z,21.30
2018-07-11T22:21:31.569Z,21.30
2018-07-11T22:23:59.309Z,21.30
2018-07-11T22:26:27.028Z,21.30
2018-07-11T22:28:54.727Z,21.30
2018-07-11T22:31:22.753Z,21.30
2018-07-11T22:33:50.462Z,21.30
2018-07-11T22:36:18.179Z,21.30
2018-07-11T22:38:45.872Z,21.30
2018-07-11T22:41:13.592Z,21.20
2018-07-11T22:43:41.279Z,21.20
2018-07-11T22:46:09.029Z,21.20
2018-07-11T22:48:36.718Z,21.20
2018-07-11T22:51:04.459Z,21.20
2018-07-11T22:53:32.191Z,21.10
2018-07-11T22:55:59.895Z,21.10
2018-07-11T22:58:27.608Z,21.10
2018-07-11T23:00:55.296Z,21.10
2018-07-11T23:03:22.998Z,21.10
2018-07-11T23:05:50.698Z,21.10
2018-07-11T23:08:18.415Z,21.00
2018-07-11T23:10:46.103Z,21.00
2018-07-11T23:13:13.817Z,21.00
2018-07-11T23:15:41.525Z,21.00
2018-07-11T23:18:09.221Z,21.00
2018-07-11T23:20:37.309Z,20.90
2018-07-11T23:23:04.958Z,20.90
2018-07-11T23:25:32.662Z,20.90
2018-07-11T23:28:00.411Z,20.90
2018-07-11T23:30:28.129Z,20.90
2018-07-11T23:32:55.823Z,20.80
2018-07-11T23:35:23.870Z,20.90
2018-07-11T23:37:51.965Z,20.80
2018-07-11T23:40:19.656Z,20.80
2018-07-11T23:42:47.334Z,20.80
2018-07-11T23:45:15.021Z,20.80
2018-07-11T23:47:42.693Z,20.80
2018-07-11T23:50:10.405Z,20.70
2018-07-11T23:52:38.181Z,20.70
2018-07-11T23:55:05.881Z,20.70
2018-07-11T23:57:33.569Z,20.70
